sensor_id;sensor_type;location;lat;lon;timestamp;P1;durP1;ratioP1;P2;durP2;ratioP2
57341;SDS011;43175;51.002;18.316;2024-02-04T00:01:15;7.50;;;2.50;;
57341;SDS011;43175;51.002;18.316;2024-02-04T00:03:40;7.60;;;2.70;;
57341;SDS011;43175;51.002;18.316;2024-02-04T00:06:06;8.80;;;2.60;;
57341;SDS011;43175;51.002;18.316;2024-02-04T00:08:32;7.60;;;2.20;;
57341;SDS011;43175;51.002;18.316;2024-02-04T00:10:57;6.60;;;2.10;;
57341;SDS011;43175;51.002;18.316;2024-02-04T00:13:23;7.40;;;2.30;;
57341;SDS011;43175;51.002;18.316;2024-02-04T00:15:48;6.90;;;2.20;;
57341;SDS011;43175;51.002;18.316;2024-02-04T00:18:14;10.80;;;2.20;;
57341;SDS011;43175;51.002;18.316;2024-02-04T00:20:39;8.00;;;1.80;;
57341;SDS011;43175;51.002;18.316;2024-02-04T00:23:05;6.90;;;1.90;;
57341;SDS011;43175;51.002;18.316;2024-02-04T00:25:30;7.20;;;1.90;;
57341;SDS011;43175;51.002;18.316;2024-02-04T00:27:56;6.20;;;1.90;;
57341;SDS011;43175;51.002;18.316;2024-02-04T00:30:21;6.80;;;2.00;;
57341;SDS011;43175;51.002;18.316;2024-02-04T00:32:47;4.90;;;1.80;;
57341;SDS011;43175;51.002;18.316;2024-02-04T00:35:12;4.90;;;1.80;;
57341;SDS011;43175;51.002;18.316;2024-02-04T00:37:38;5.10;;;1.80;;
57341;SDS011;43175;51.002;18.316;2024-02-04T00:40:03;5.00;;;1.70;;
57341;SDS011;43175;51.002;18.316;2024-02-04T00:42:29;4.00;;;1.70;;
57341;SDS011;43175;51.002;18.316;2024-02-04T00:44:54;4.20;;;1.70;;
57341;SDS011;43175;51.002;18.316;2024-02-04T00:47:20;7.70;;;1.90;;
57341;SDS011;43175;51.002;18.316;2024-02-04T00:49:47;5.10;;;1.80;;
57341;SDS011;43175;51.002;18.316;2024-02-04T00:52:12;8.10;;;1.90;;
57341;SDS011;43175;51.002;18.316;2024-02-04T00:54:38;7.50;;;2.10;;
57341;SDS011;43175;51.002;18.316;2024-02-04T00:57:04;5.70;;;1.80;;
57341;SDS011;43175;51.002;18.316;2024-02-04T00:59:30;6.20;;;2.00;;
57341;SDS011;43175;51.002;18.316;2024-02-04T01:01:55;6.80;;;2.10;;
57341;SDS011;43175;51.002;18.316;2024-02-04T01:04:21;7.30;;;2.20;;
57341;SDS011;43175;51.002;18.316;2024-02-04T01:06:48;7.50;;;2.10;;
57341;SDS011;43175;51.002;18.316;2024-02-04T01:09:14;8.90;;;2.20;;
57341;SDS011;43175;51.002;18.316;2024-02-04T01:11:40;6.70;;;2.40;;
57341;SDS011;43175;51.002;18.316;2024-02-04T01:14:05;7.60;;;2.50;;
57341;SDS011;43175;51.002;18.316;2024-02-04T01:16:31;8.40;;;2.80;;
57341;SDS011;43175;51.002;18.316;2024-02-04T01:18:56;9.30;;;2.60;;
57341;SDS011;43175;51.002;18.316;2024-02-04T01:21:22;8.50;;;2.60;;
57341;SDS011;43175;51.002;18.316;2024-02-04T01:23:48;8.00;;;2.40;;
57341;SDS011;43175;51.002;18.316;2024-02-04T01:26:14;7.90;;;2.60;;
57341;SDS011;43175;51.002;18.316;2024-02-04T01:28:40;9.00;;;2.60;;
57341;SDS011;43175;51.002;18.316;2024-02-04T01:31:06;8.50;;;2.60;;
57341;SDS011;43175;51.002;18.316;2024-02-04T01:33:31;9.20;;;2.70;;
57341;SDS011;43175;51.002;18.316;2024-02-04T01:35:57;8.00;;;2.70;;
57341;SDS011;43175;51.002;18.316;2024-02-04T01:38:24;9.10;;;2.60;;
57341;SDS011;43175;51.002;18.316;2024-02-04T01:40:49;11.10;;;2.60;;
57341;SDS011;43175;51.002;18.316;2024-02-04T01:43:18;8.20;;;2.40;;
57341;SDS011;43175;51.002;18.316;2024-02-04T01:45:44;7.80;;;2.30;;
57341;SDS011;43175;51.002;18.316;2024-02-04T01:48:11;8.30;;;2.40;;
57341;SDS011;43175;51.002;18.316;2024-02-04T01:50:36;9.00;;;2.40;;
57341;SDS011;43175;51.002;18.316;2024-02-04T01:53:02;7.70;;;2.50;;
57341;SDS011;43175;51.002;18.316;2024-02-04T01:55:29;7.00;;;2.30;;
57341;SDS011;43175;51.002;18.316;2024-02-04T01:57:54;8.80;;;2.40;;
57341;SDS011;43175;51.002;18.316;2024-02-04T02:00:20;8.50;;;2.50;;
57341;SDS011;43175;51.002;18.316;2024-02-04T02:02:45;9.30;;;2.80;;
57341;SDS011;43175;51.002;18.316;2024-02-04T02:05:11;8.60;;;2.50;;
57341;SDS011;43175;51.002;18.316;2024-02-04T02:07:37;10.10;;;2.50;;
57341;SDS011;43175;51.002;18.316;2024-02-04T02:10:03;10.10;;;2.50;;
57341;SDS011;43175;51.002;18.316;2024-02-04T02:12:35;9.50;;;2.80;;
57341;SDS011;43175;51.002;18.316;2024-02-04T02:15:22;7.70;;;2.20;;
57341;SDS011;43175;51.002;18.316;2024-02-04T02:17:59;10.30;;;2.90;;
57341;SDS011;43175;51.002;18.316;2024-02-04T02:20:30;9.20;;;2.40;;
57341;SDS011;43175;51.002;18.316;2024-02-04T02:23:07;9.10;;;2.30;;
57341;SDS011;43175;51.002;18.316;2024-02-04T02:25:33;8.90;;;2.60;;
57341;SDS011;43175;51.002;18.316;2024-02-04T02:28:01;7.50;;;2.50;;
57341;SDS011;43175;51.002;18.316;2024-02-04T02:30:27;8.60;;;2.40;;
57341;SDS011;43175;51.002;18.316;2024-02-04T02:32:52;9.20;;;2.60;;
57341;SDS011;43175;51.002;18.316;2024-02-04T02:35:18;9.40;;;3.00;;
57341;SDS011;43175;51.002;18.316;2024-02-04T02:42:44;10.90;;;2.60;;
57341;SDS011;43175;51.002;18.316;2024-02-04T02:45:11;9.20;;;2.50;;
57341;SDS011;43175;51.002;18.316;2024-02-04T02:47:37;7.30;;;2.30;;
57341;SDS011;43175;51.002;18.316;2024-02-04T02:50:04;9.50;;;2.50;;
57341;SDS011;43175;51.002;18.316;2024-02-04T02:52:31;9.40;;;2.70;;
57341;SDS011;43175;51.002;18.316;2024-02-04T02:54:56;9.50;;;2.80;;
57341;SDS011;43175;51.002;18.316;2024-02-04T02:57:22;8.20;;;2.50;;
57341;SDS011;43175;51.002;18.316;2024-02-04T02:59:48;8.50;;;2.30;;
57341;SDS011;43175;51.002;18.316;2024-02-04T03:02:14;11.00;;;2.40;;
57341;SDS011;43175;51.002;18.316;2024-02-04T03:04:39;9.50;;;2.50;;
57341;SDS011;43175;51.002;18.316;2024-02-04T03:07:05;9.20;;;2.50;;
57341;SDS011;43175;51.002;18.316;2024-02-04T03:09:31;7.60;;;2.40;;
57341;SDS011;43175;51.002;18.316;2024-02-04T03:11:57;9.80;;;2.40;;
57341;SDS011;43175;51.002;18.316;2024-02-04T03:14:23;9.80;;;2.80;;
57341;SDS011;43175;51.002;18.316;2024-02-04T03:16:49;9.30;;;2.70;;
57341;SDS011;43175;51.002;18.316;2024-02-04T03:19:15;8.80;;;2.50;;
57341;SDS011;43175;51.002;18.316;2024-02-04T03:21:40;9.00;;;2.50;;
57341;SDS011;43175;51.002;18.316;2024-02-04T03:24:06;10.20;;;2.60;;
57341;SDS011;43175;51.002;18.316;2024-02-04T03:26:31;8.90;;;2.90;;
57341;SDS011;43175;51.002;18.316;2024-02-04T03:28:57;7.60;;;2.40;;
57341;SDS011;43175;51.002;18.316;2024-02-04T03:31:23;9.70;;;2.60;;
57341;SDS011;43175;51.002;18.316;2024-02-04T03:33:50;9.20;;;2.50;;
57341;SDS011;43175;51.002;18.316;2024-02-04T03:36:17;11.30;;;3.90;;
57341;SDS011;43175;51.002;18.316;2024-02-04T03:38:43;9.70;;;2.70;;
57341;SDS011;43175;51.002;18.316;2024-02-04T03:41:09;9.10;;;2.50;;
57341;SDS011;43175;51.002;18.316;2024-02-04T03:43:38;10.80;;;2.60;;
57341;SDS011;43175;51.002;18.316;2024-02-04T03:46:03;8.30;;;2.40;;
57341;SDS011;43175;51.002;18.316;2024-02-04T03:48:28;9.90;;;3.40;;
57341;SDS011;43175;51.002;18.316;2024-02-04T03:50:54;10.30;;;2.80;;
57341;SDS011;43175;51.002;18.316;2024-02-04T03:53:20;11.10;;;2.30;;
57341;SDS011;43175;51.002;18.316;2024-02-04T03:55:48;8.60;;;2.60;;
57341;SDS011;43175;51.002;18.316;2024-02-04T03:58:14;8.70;;;2.50;;
57341;SDS011;43175;51.002;18.316;2024-02-04T04:00:40;9.00;;;2.60;;
57341;SDS011;43175;51.002;18.316;2024-02-04T04:03:06;8.20;;;2.30;;
57341;SDS011;43175;51.002;18.316;2024-02-04T04:05:31;10.30;;;2.80;;
57341;SDS011;43175;51.002;18.316;2024-02-04T04:07:57;9.70;;;2.70;;
57341;SDS011;43175;51.002;18.316;2024-02-04T04:10:22;9.20;;;2.90;;
57341;SDS011;43175;51.002;18.316;2024-02-04T04:12:48;10.50;;;3.00;;
57341;SDS011;43175;51.002;18.316;2024-02-04T04:15:14;9.50;;;2.90;;
57341;SDS011;43175;51.002;18.316;2024-02-04T04:17:39;11.70;;;3.30;;
57341;SDS011;43175;51.002;18.316;2024-02-04T04:20:06;11.00;;;3.20;;
57341;SDS011;43175;51.002;18.316;2024-02-04T04:22:32;10.60;;;3.60;;
57341;SDS011;43175;51.002;18.316;2024-02-04T04:24:58;10.40;;;3.50;;
57341;SDS011;43175;51.002;18.316;2024-02-04T04:27:23;10.70;;;3.80;;
57341;SDS011;43175;51.002;18.316;2024-02-04T04:29:49;10.50;;;3.80;;
57341;SDS011;43175;51.002;18.316;2024-02-04T04:32:15;10.50;;;3.30;;
57341;SDS011;43175;51.002;18.316;2024-02-04T04:34:40;10.50;;;3.70;;
57341;SDS011;43175;51.002;18.316;2024-02-04T04:37:06;13.00;;;4.00;;
57341;SDS011;43175;51.002;18.316;2024-02-04T04:39:32;12.70;;;3.90;;
57341;SDS011;43175;51.002;18.316;2024-02-04T04:41:58;10.90;;;3.70;;
57341;SDS011;43175;51.002;18.316;2024-02-04T04:44:23;12.00;;;4.00;;
57341;SDS011;43175;51.002;18.316;2024-02-04T04:46:49;11.70;;;3.90;;
57341;SDS011;43175;51.002;18.316;2024-02-04T04:49:15;12.10;;;4.20;;
57341;SDS011;43175;51.002;18.316;2024-02-04T04:51:44;10.50;;;4.00;;
57341;SDS011;43175;51.002;18.316;2024-02-04T04:54:10;12.10;;;3.90;;
57341;SDS011;43175;51.002;18.316;2024-02-04T04:56:39;11.30;;;4.10;;
57341;SDS011;43175;51.002;18.316;2024-02-04T04:59:08;10.80;;;3.80;;
57341;SDS011;43175;51.002;18.316;2024-02-04T05:01:35;11.90;;;4.40;;
57341;SDS011;43175;51.002;18.316;2024-02-04T05:04:00;12.00;;;4.20;;
57341;SDS011;43175;51.002;18.316;2024-02-04T05:06:26;11.30;;;3.80;;
57341;SDS011;43175;51.002;18.316;2024-02-04T05:08:52;9.80;;;3.50;;
57341;SDS011;43175;51.002;18.316;2024-02-04T05:11:17;12.00;;;3.50;;
57341;SDS011;43175;51.002;18.316;2024-02-04T05:13:43;11.90;;;3.60;;
57341;SDS011;43175;51.002;18.316;2024-02-04T05:16:09;9.90;;;3.40;;
57341;SDS011;43175;51.002;18.316;2024-02-04T05:18:34;14.80;;;4.80;;
57341;SDS011;43175;51.002;18.316;2024-02-04T05:21:03;9.60;;;2.80;;
57341;SDS011;43175;51.002;18.316;2024-02-04T05:23:29;8.60;;;2.80;;
57341;SDS011;43175;51.002;18.316;2024-02-04T05:25:55;11.40;;;2.20;;
57341;SDS011;43175;51.002;18.316;2024-02-04T05:28:20;7.10;;;2.30;;
57341;SDS011;43175;51.002;18.316;2024-02-04T05:30:45;8.30;;;2.40;;
57341;SDS011;43175;51.002;18.316;2024-02-04T05:33:14;7.60;;;2.30;;
57341;SDS011;43175;51.002;18.316;2024-02-04T05:35:41;7.60;;;2.30;;
57341;SDS011;43175;51.002;18.316;2024-02-04T05:38:08;8.10;;;2.30;;
57341;SDS011;43175;51.002;18.316;2024-02-04T05:40:34;8.10;;;2.50;;
57341;SDS011;43175;51.002;18.316;2024-02-04T05:43:00;8.90;;;2.80;;
57341;SDS011;43175;51.002;18.316;2024-02-04T05:45:25;8.10;;;2.30;;
57341;SDS011;43175;51.002;18.316;2024-02-04T05:47:51;10.30;;;2.60;;
57341;SDS011;43175;51.002;18.316;2024-02-04T05:50:16;12.40;;;3.50;;
57341;SDS011;43175;51.002;18.316;2024-02-04T05:52:42;12.20;;;2.80;;
57341;SDS011;43175;51.002;18.316;2024-02-04T05:55:09;8.80;;;2.30;;
57341;SDS011;43175;51.002;18.316;2024-02-04T05:57:35;7.80;;;2.10;;
57341;SDS011;43175;51.002;18.316;2024-02-04T06:00:00;10.70;;;2.30;;
57341;SDS011;43175;51.002;18.316;2024-02-04T06:02:26;8.20;;;2.30;;
57341;SDS011;43175;51.002;18.316;2024-02-04T06:04:52;7.80;;;2.20;;
57341;SDS011;43175;51.002;18.316;2024-02-04T06:07:18;9.50;;;2.10;;
57341;SDS011;43175;51.002;18.316;2024-02-04T06:09:44;11.10;;;2.30;;
57341;SDS011;43175;51.002;18.316;2024-02-04T06:12:09;11.50;;;2.70;;
57341;SDS011;43175;51.002;18.316;2024-02-04T06:14:35;9.90;;;2.50;;
57341;SDS011;43175;51.002;18.316;2024-02-04T06:17:04;11.20;;;2.50;;
57341;SDS011;43175;51.002;18.316;2024-02-04T06:19:30;10.80;;;2.30;;
57341;SDS011;43175;51.002;18.316;2024-02-04T06:21:56;13.60;;;2.70;;
57341;SDS011;43175;51.002;18.316;2024-02-04T06:24:22;8.90;;;2.30;;
57341;SDS011;43175;51.002;18.316;2024-02-04T06:26:47;11.00;;;2.30;;
57341;SDS011;43175;51.002;18.316;2024-02-04T06:29:13;10.60;;;2.30;;
57341;SDS011;43175;51.002;18.316;2024-02-04T06:31:39;9.20;;;2.50;;
57341;SDS011;43175;51.002;18.316;2024-02-04T06:34:04;11.50;;;2.50;;
57341;SDS011;43175;51.002;18.316;2024-02-04T06:36:30;11.50;;;2.70;;
57341;SDS011;43175;51.002;18.316;2024-02-04T06:38:56;9.30;;;2.30;;
57341;SDS011;43175;51.002;18.316;2024-02-04T06:41:21;9.50;;;2.30;;
57341;SDS011;43175;51.002;18.316;2024-02-04T06:43:47;11.10;;;2.40;;
57341;SDS011;43175;51.002;18.316;2024-02-04T06:46:13;10.60;;;2.70;;
57341;SDS011;43175;51.002;18.316;2024-02-04T06:48:39;11.80;;;2.60;;
57341;SDS011;43175;51.002;18.316;2024-02-04T06:51:04;11.60;;;2.60;;
57341;SDS011;43175;51.002;18.316;2024-02-04T06:53:30;11.30;;;2.70;;
57341;SDS011;43175;51.002;18.316;2024-02-04T06:55:55;11.40;;;2.80;;
57341;SDS011;43175;51.002;18.316;2024-02-04T06:58:21;10.50;;;2.70;;
57341;SDS011;43175;51.002;18.316;2024-02-04T07:00:47;10.10;;;2.60;;
57341;SDS011;43175;51.002;18.316;2024-02-04T07:03:12;11.40;;;2.70;;
57341;SDS011;43175;51.002;18.316;2024-02-04T07:05:38;12.20;;;2.60;;
57341;SDS011;43175;51.002;18.316;2024-02-04T07:08:04;11.90;;;2.50;;
57341;SDS011;43175;51.002;18.316;2024-02-04T07:10:29;12.30;;;2.40;;
57341;SDS011;43175;51.002;18.316;2024-02-04T07:12:55;9.90;;;2.40;;
57341;SDS011;43175;51.002;18.316;2024-02-04T07:15:21;10.50;;;2.20;;
57341;SDS011;43175;51.002;18.316;2024-02-04T07:17:46;11.60;;;2.80;;
57341;SDS011;43175;51.002;18.316;2024-02-04T07:20:12;9.50;;;2.50;;
57341;SDS011;43175;51.002;18.316;2024-02-04T07:22:38;9.80;;;2.40;;
57341;SDS011;43175;51.002;18.316;2024-02-04T07:25:04;11.70;;;2.60;;
57341;SDS011;43175;51.002;18.316;2024-02-04T07:27:30;12.50;;;3.50;;
57341;SDS011;43175;51.002;18.316;2024-02-04T07:29:56;18.50;;;4.50;;
57341;SDS011;43175;51.002;18.316;2024-02-04T07:32:23;13.50;;;4.10;;
57341;SDS011;43175;51.002;18.316;2024-02-04T07:34:49;13.60;;;4.20;;
57341;SDS011;43175;51.002;18.316;2024-02-04T07:37:15;12.60;;;3.50;;
57341;SDS011;43175;51.002;18.316;2024-02-04T07:39:43;11.20;;;3.30;;
57341;SDS011;43175;51.002;18.316;2024-02-04T07:42:08;12.70;;;3.60;;
57341;SDS011;43175;51.002;18.316;2024-02-04T07:44:34;13.80;;;4.10;;
57341;SDS011;43175;51.002;18.316;2024-02-04T07:47:00;11.80;;;4.10;;
57341;SDS011;43175;51.002;18.316;2024-02-04T07:49:25;13.80;;;4.30;;
57341;SDS011;43175;51.002;18.316;2024-02-04T07:51:51;12.50;;;4.20;;
57341;SDS011;43175;51.002;18.316;2024-02-04T07:54:17;14.20;;;4.50;;
57341;SDS011;43175;51.002;18.316;2024-02-04T07:56:42;13.30;;;4.20;;
57341;SDS011;43175;51.002;18.316;2024-02-04T07:59:08;13.20;;;3.90;;
57341;SDS011;43175;51.002;18.316;2024-02-04T08:01:34;15.60;;;4.40;;
57341;SDS011;43175;51.002;18.316;2024-02-04T08:03:59;11.80;;;3.80;;
57341;SDS011;43175;51.002;18.316;2024-02-04T08:06:25;13.60;;;3.80;;
57341;SDS011;43175;51.002;18.316;2024-02-04T08:08:51;13.00;;;3.70;;
57341;SDS011;43175;51.002;18.316;2024-02-04T08:11:16;12.70;;;3.30;;
57341;SDS011;43175;51.002;18.316;2024-02-04T08:13:43;12.60;;;3.20;;
57341;SDS011;43175;51.002;18.316;2024-02-04T08:16:08;13.60;;;3.90;;
57341;SDS011;43175;51.002;18.316;2024-02-04T08:18:33;13.50;;;3.50;;
57341;SDS011;43175;51.002;18.316;2024-02-04T08:20:59;18.50;;;7.50;;
57341;SDS011;43175;51.002;18.316;2024-02-04T08:23:24;13.50;;;4.70;;
57341;SDS011;43175;51.002;18.316;2024-02-04T08:25:50;15.70;;;5.60;;
57341;SDS011;43175;51.002;18.316;2024-02-04T08:28:16;14.40;;;5.10;;
57341;SDS011;43175;51.002;18.316;2024-02-04T08:30:42;12.00;;;4.10;;
57341;SDS011;43175;51.002;18.316;2024-02-04T08:33:07;15.20;;;4.30;;
57341;SDS011;43175;51.002;18.316;2024-02-04T08:35:34;16.20;;;5.10;;
57341;SDS011;43175;51.002;18.316;2024-02-04T08:37:59;12.40;;;4.10;;
57341;SDS011;43175;51.002;18.316;2024-02-04T08:40:25;11.80;;;4.30;;
57341;SDS011;43175;51.002;18.316;2024-02-04T08:42:51;18.00;;;4.50;;
57341;SDS011;43175;51.002;18.316;2024-02-04T08:45:16;15.30;;;3.70;;
57341;SDS011;43175;51.002;18.316;2024-02-04T08:47:41;12.90;;;3.60;;
57341;SDS011;43175;51.002;18.316;2024-02-04T08:50:07;14.30;;;3.60;;
57341;SDS011;43175;51.002;18.316;2024-02-04T08:52:33;13.00;;;3.80;;
57341;SDS011;43175;51.002;18.316;2024-02-04T08:54:59;13.70;;;4.00;;
57341;SDS011;43175;51.002;18.316;2024-02-04T08:57:25;19.70;;;8.60;;
57341;SDS011;43175;51.002;18.316;2024-02-04T08:59:50;26.60;;;14.80;;
57341;SDS011;43175;51.002;18.316;2024-02-04T09:02:16;15.70;;;6.70;;
57341;SDS011;43175;51.002;18.316;2024-02-04T09:04:42;23.60;;;10.80;;
57341;SDS011;43175;51.002;18.316;2024-02-04T09:07:08;16.70;;;6.50;;
57341;SDS011;43175;51.002;18.316;2024-02-04T09:09:33;13.90;;;5.30;;
57341;SDS011;43175;51.002;18.316;2024-02-04T09:11:59;10.20;;;2.90;;
57341;SDS011;43175;51.002;18.316;2024-02-04T09:14:24;14.90;;;3.20;;
57341;SDS011;43175;51.002;18.316;2024-02-04T09:16:50;10.50;;;2.80;;
57341;SDS011;43175;51.002;18.316;2024-02-04T09:19:16;10.70;;;2.80;;
57341;SDS011;43175;51.002;18.316;2024-02-04T09:21:41;10.30;;;2.90;;
57341;SDS011;43175;51.002;18.316;2024-02-04T09:24:07;10.80;;;3.20;;
57341;SDS011;43175;51.002;18.316;2024-02-04T09:26:33;10.20;;;2.90;;
57341;SDS011;43175;51.002;18.316;2024-02-04T09:28:58;10.70;;;2.90;;
57341;SDS011;43175;51.002;18.316;2024-02-04T09:31:23;11.90;;;3.10;;
57341;SDS011;43175;51.002;18.316;2024-02-04T09:33:49;9.80;;;2.50;;
57341;SDS011;43175;51.002;18.316;2024-02-04T09:36:14;9.60;;;2.80;;
57341;SDS011;43175;51.002;18.316;2024-02-04T09:38:40;10.50;;;2.80;;
57341;SDS011;43175;51.002;18.316;2024-02-04T09:41:05;9.20;;;2.30;;
57341;SDS011;43175;51.002;18.316;2024-02-04T09:43:31;12.20;;;3.30;;
57341;SDS011;43175;51.002;18.316;2024-02-04T09:45:57;15.70;;;5.70;;
57341;SDS011;43175;51.002;18.316;2024-02-04T09:48:23;23.10;;;11.70;;
57341;SDS011;43175;51.002;18.316;2024-02-04T09:50:50;15.20;;;5.00;;
57341;SDS011;43175;51.002;18.316;2024-02-04T09:53:17;19.60;;;10.20;;
57341;SDS011;43175;51.002;18.316;2024-02-04T09:55:44;18.40;;;9.10;;
57341;SDS011;43175;51.002;18.316;2024-02-04T09:58:10;16.00;;;6.70;;
57341;SDS011;43175;51.002;18.316;2024-02-04T10:00:36;23.50;;;10.60;;
57341;SDS011;43175;51.002;18.316;2024-02-04T10:03:04;19.40;;;8.80;;
57341;SDS011;43175;51.002;18.316;2024-02-04T10:05:29;16.60;;;6.60;;
57341;SDS011;43175;51.002;18.316;2024-02-04T10:07:55;13.80;;;4.70;;
57341;SDS011;43175;51.002;18.316;2024-02-04T10:10:21;10.90;;;2.90;;
57341;SDS011;43175;51.002;18.316;2024-02-04T10:12:47;14.00;;;4.00;;
57341;SDS011;43175;51.002;18.316;2024-02-04T10:15:12;14.50;;;5.50;;
57341;SDS011;43175;51.002;18.316;2024-02-04T10:17:41;10.90;;;3.90;;
57341;SDS011;43175;51.002;18.316;2024-02-04T10:20:09;12.20;;;3.60;;
57341;SDS011;43175;51.002;18.316;2024-02-04T10:22:35;12.40;;;2.60;;
57341;SDS011;43175;51.002;18.316;2024-02-04T10:25:07;11.40;;;2.80;;
57341;SDS011;43175;51.002;18.316;2024-02-04T10:27:34;11.90;;;2.90;;
57341;SDS011;43175;51.002;18.316;2024-02-04T10:30:00;9.70;;;2.70;;
57341;SDS011;43175;51.002;18.316;2024-02-04T10:32:25;11.80;;;3.10;;
57341;SDS011;43175;51.002;18.316;2024-02-04T10:34:51;10.40;;;2.60;;
57341;SDS011;43175;51.002;18.316;2024-02-04T10:37:16;8.40;;;2.40;;
57341;SDS011;43175;51.002;18.316;2024-02-04T10:39:42;12.60;;;3.00;;
57341;SDS011;43175;51.002;18.316;2024-02-04T10:42:08;20.20;;;8.20;;
57341;SDS011;43175;51.002;18.316;2024-02-04T10:44:35;29.30;;;13.40;;
57341;SDS011;43175;51.002;18.316;2024-02-04T10:47:05;12.90;;;4.50;;
57341;SDS011;43175;51.002;18.316;2024-02-04T10:49:32;12.50;;;5.10;;
57341;SDS011;43175;51.002;18.316;2024-02-04T10:51:59;13.30;;;4.40;;
57341;SDS011;43175;51.002;18.316;2024-02-04T10:54:25;12.00;;;4.30;;
57341;SDS011;43175;51.002;18.316;2024-02-04T10:56:55;12.00;;;3.10;;
57341;SDS011;43175;51.002;18.316;2024-02-04T10:59:21;10.90;;;2.60;;
57341;SDS011;43175;51.002;18.316;2024-02-04T11:01:47;17.60;;;6.50;;
57341;SDS011;43175;51.002;18.316;2024-02-04T11:04:13;13.00;;;4.20;;
57341;SDS011;43175;51.002;18.316;2024-02-04T11:06:40;12.80;;;3.10;;
57341;SDS011;43175;51.002;18.316;2024-02-04T11:09:06;11.50;;;3.10;;
57341;SDS011;43175;51.002;18.316;2024-02-04T11:11:32;19.00;;;9.40;;
57341;SDS011;43175;51.002;18.316;2024-02-04T11:13:58;10.60;;;3.10;;
57341;SDS011;43175;51.002;18.316;2024-02-04T11:27:21;13.90;;;4.70;;
57341;SDS011;43175;51.002;18.316;2024-02-04T11:29:47;10.20;;;3.40;;
57341;SDS011;43175;51.002;18.316;2024-02-04T11:32:12;14.50;;;3.60;;
57341;SDS011;43175;51.002;18.316;2024-02-04T11:34:38;12.20;;;3.70;;
57341;SDS011;43175;51.002;18.316;2024-02-04T11:37:16;10.70;;;3.60;;
57341;SDS011;43175;51.002;18.316;2024-02-04T11:40:03;12.60;;;3.90;;
57341;SDS011;43175;51.002;18.316;2024-02-04T11:42:33;12.00;;;3.60;;
57341;SDS011;43175;51.002;18.316;2024-02-04T11:45:10;12.40;;;3.90;;
57341;SDS011;43175;51.002;18.316;2024-02-04T11:47:37;12.80;;;4.40;;
57341;SDS011;43175;51.002;18.316;2024-02-04T11:50:02;13.90;;;4.70;;
57341;SDS011;43175;51.002;18.316;2024-02-04T11:52:29;12.80;;;4.30;;
57341;SDS011;43175;51.002;18.316;2024-02-04T11:54:54;13.70;;;4.50;;
57341;SDS011;43175;51.002;18.316;2024-02-04T11:57:20;13.50;;;4.60;;
57341;SDS011;43175;51.002;18.316;2024-02-04T11:59:46;12.40;;;4.30;;
57341;SDS011;43175;51.002;18.316;2024-02-04T12:02:12;11.80;;;4.10;;
57341;SDS011;43175;51.002;18.316;2024-02-04T12:04:38;14.10;;;4.30;;
57341;SDS011;43175;51.002;18.316;2024-02-04T12:07:05;10.70;;;3.20;;
57341;SDS011;43175;51.002;18.316;2024-02-04T12:09:30;13.10;;;2.90;;
57341;SDS011;43175;51.002;18.316;2024-02-04T12:11:57;12.60;;;3.40;;
57341;SDS011;43175;51.002;18.316;2024-02-04T12:14:22;11.70;;;3.30;;
57341;SDS011;43175;51.002;18.316;2024-02-04T12:16:48;10.30;;;3.00;;
57341;SDS011;43175;51.002;18.316;2024-02-04T12:19:13;13.10;;;3.40;;
57341;SDS011;43175;51.002;18.316;2024-02-04T12:21:38;11.20;;;3.50;;
57341;SDS011;43175;51.002;18.316;2024-02-04T12:24:04;10.90;;;3.60;;
57341;SDS011;43175;51.002;18.316;2024-02-04T12:26:30;11.50;;;3.70;;
57341;SDS011;43175;51.002;18.316;2024-02-04T12:28:55;11.30;;;4.30;;
57341;SDS011;43175;51.002;18.316;2024-02-04T12:31:25;11.40;;;4.30;;
57341;SDS011;43175;51.002;18.316;2024-02-04T12:33:54;13.20;;;4.50;;
57341;SDS011;43175;51.002;18.316;2024-02-04T12:36:20;15.40;;;4.50;;
57341;SDS011;43175;51.002;18.316;2024-02-04T12:38:55;13.70;;;4.40;;
57341;SDS011;43175;51.002;18.316;2024-02-04T12:41:21;10.30;;;4.10;;
57341;SDS011;43175;51.002;18.316;2024-02-04T12:43:52;12.10;;;4.30;;
57341;SDS011;43175;51.002;18.316;2024-02-04T12:46:21;13.80;;;4.90;;
57341;SDS011;43175;51.002;18.316;2024-02-04T12:48:50;15.10;;;5.60;;
57341;SDS011;43175;51.002;18.316;2024-02-04T12:51:25;12.20;;;5.00;;
57341;SDS011;43175;51.002;18.316;2024-02-04T12:54:01;11.20;;;4.60;;
57341;SDS011;43175;51.002;18.316;2024-02-04T12:56:27;11.60;;;4.50;;
57341;SDS011;43175;51.002;18.316;2024-02-04T12:58:52;15.40;;;6.00;;
57341;SDS011;43175;51.002;18.316;2024-02-04T13:01:17;34.10;;;17.10;;
57341;SDS011;43175;51.002;18.316;2024-02-04T13:03:43;58.90;;;28.90;;
57341;SDS011;43175;51.002;18.316;2024-02-04T13:06:10;30.40;;;16.10;;
57341;SDS011;43175;51.002;18.316;2024-02-04T13:08:35;24.00;;;15.70;;
57341;SDS011;43175;51.002;18.316;2024-02-04T13:11:01;20.80;;;14.00;;
57341;SDS011;43175;51.002;18.316;2024-02-04T13:13:27;16.30;;;8.90;;
57341;SDS011;43175;51.002;18.316;2024-02-04T13:15:54;22.80;;;16.40;;
57341;SDS011;43175;51.002;18.316;2024-02-04T13:18:19;18.80;;;12.10;;
57341;SDS011;43175;51.002;18.316;2024-02-04T13:20:45;16.00;;;9.60;;
57341;SDS011;43175;51.002;18.316;2024-02-04T13:23:11;17.00;;;9.00;;
57341;SDS011;43175;51.002;18.316;2024-02-04T13:25:36;14.50;;;7.20;;
57341;SDS011;43175;51.002;18.316;2024-02-04T13:28:02;15.40;;;8.20;;
57341;SDS011;43175;51.002;18.316;2024-02-04T13:30:29;63.20;;;39.60;;
57341;SDS011;43175;51.002;18.316;2024-02-04T13:32:55;47.70;;;33.10;;
57341;SDS011;43175;51.002;18.316;2024-02-04T13:35:22;20.80;;;13.10;;
57341;SDS011;43175;51.002;18.316;2024-02-04T13:37:48;33.80;;;18.00;;
57341;SDS011;43175;51.002;18.316;2024-02-04T13:40:16;37.80;;;22.30;;
57341;SDS011;43175;51.002;18.316;2024-02-04T13:42:42;29.80;;;17.40;;
57341;SDS011;43175;51.002;18.316;2024-02-04T13:45:08;21.50;;;11.80;;
57341;SDS011;43175;51.002;18.316;2024-02-04T13:47:34;15.60;;;8.90;;
57341;SDS011;43175;51.002;18.316;2024-02-04T13:49:59;16.30;;;7.10;;
57341;SDS011;43175;51.002;18.316;2024-02-04T13:52:25;14.80;;;6.80;;
57341;SDS011;43175;51.002;18.316;2024-02-04T13:54:51;28.90;;;17.40;;
57341;SDS011;43175;51.002;18.316;2024-02-04T13:57:16;43.50;;;24.50;;
57341;SDS011;43175;51.002;18.316;2024-02-04T13:59:42;18.70;;;10.30;;
57341;SDS011;43175;51.002;18.316;2024-02-04T14:02:08;35.20;;;19.70;;
57341;SDS011;43175;51.002;18.316;2024-02-04T14:04:36;31.10;;;18.40;;
57341;SDS011;43175;51.002;18.316;2024-02-04T14:07:02;30.70;;;16.30;;
57341;SDS011;43175;51.002;18.316;2024-02-04T14:09:28;28.40;;;16.10;;
57341;SDS011;43175;51.002;18.316;2024-02-04T14:11:54;16.90;;;9.80;;
57341;SDS011;43175;51.002;18.316;2024-02-04T14:14:20;23.20;;;13.00;;
57341;SDS011;43175;51.002;18.316;2024-02-04T14:16:46;25.00;;;14.40;;
57341;SDS011;43175;51.002;18.316;2024-02-04T14:19:12;20.20;;;10.40;;
57341;SDS011;43175;51.002;18.316;2024-02-04T14:21:40;15.40;;;7.80;;
57341;SDS011;43175;51.002;18.316;2024-02-04T14:24:06;18.20;;;9.60;;
57341;SDS011;43175;51.002;18.316;2024-02-04T14:26:31;17.50;;;8.40;;
57341;SDS011;43175;51.002;18.316;2024-02-04T14:28:57;16.40;;;7.90;;
57341;SDS011;43175;51.002;18.316;2024-02-04T14:31:23;15.60;;;7.10;;
57341;SDS011;43175;51.002;18.316;2024-02-04T14:33:48;18.30;;;8.80;;
57341;SDS011;43175;51.002;18.316;2024-02-04T14:36:14;16.50;;;7.90;;